Time,TemperatureF,DewpointF,PressureIn,WindDirection,WindDirectionDegrees,WindSpeedMPH,WindSpeedGustMPH,Humidity,HourlyPrecipIn,Conditions,Clouds,dailyrainin,SoftwareType,DateUTC
2013-11-08 00:13:00,33.5,23.0,30.00,SW,220,1.0,1.0,66,0.00,,,0.00,weatherlink.com 1.10,2013-11-08 07:13:00,
2013-11-08 00:28:00,32.7,23.0,29.98,WNW,285,1.0,1.0,67,0.00,,,0.00,weatherlink.com 1.10,2013-11-08 07:28:00,
2013-11-08 00:43:00,32.2,23.0,29.98,West,263,0.0,4.0,69,0.00,,,0.00,weatherlink.com 1.10,2013-11-08 07:43:00,
2013-11-08 00:59:00,32.5,23.0,29.97,West,263,1.0,2.0,68,0.00,,,0.00,weatherlink.com 1.10,2013-11-08 07:59:00,
2013-11-08 01:14:00,32.3,23.0,29.96,West,263,0.0,0.0,69,0.00,,,0.00,weatherlink.com 1.10,2013-11-08 08:14:00,
2013-11-08 01:29:00,32.4,23.0,29.96,West,263,0.0,2.0,69,0.00,,,0.00,weatherlink.com 1.10,2013-11-08 08:29:00,
2013-11-08 01:44:00,32.4,23.0,29.95,West,263,0.0,2.0,68,0.00,,,0.00,weatherlink.com 1.10,2013-11-08 08:44:00,
2013-11-08 01:59:00,32.5,23.0,29.95,West,263,0.0,2.0,68,0.00,,,0.00,weatherlink.com 1.10,2013-11-08 08:59:00,
2013-11-08 02:14:00,32.4,23.0,29.93,West,263,0.0,2.0,68,0.00,,,0.00,weatherlink.com 1.10,2013-11-08 09:14:00,
2013-11-08 02:29:00,32.9,23.0,29.92,West,263,0.0,2.0,68,0.00,,,0.00,weatherlink.com 1.10,2013-11-08 09:29:00,
2013-11-08 02:44:00,35.8,23.0,29.91,West,263,2.0,2.0,59,0.00,,,0.00,weatherlink.com 1.10,2013-11-08 09:44:00,
2013-11-08 02:59:00,36.5,22.0,29.90,West,263,0.0,1.0,57,0.00,,,0.00,weatherlink.com 1.10,2013-11-08 09:59:00,
2013-11-08 03:14:00,36.2,22.0,29.90,West,263,0.0,0.0,57,0.00,,,0.00,weatherlink.com 1.10,2013-11-08 10:14:00,
2013-11-08 03:29:00,34.8,22.0,29.89,West,263,1.0,2.0,60,0.00,,,0.00,weatherlink.com 1.10,2013-11-08 10:29:00,
2013-11-08 03:44:00,34.1,23.0,29.88,West,263,0.0,2.0,63,0.00,,,0.00,weatherlink.com 1.10,2013-11-08 10:44:00,
2013-11-08 03:59:00,34.8,22.0,29.87,West,263,0.0,2.0,61,0.00,,,0.00,weatherlink.com 1.10,2013-11-08 10:59:00,
2013-11-08 04:14:00,35.1,23.0,29.87,West,263,0.0,1.0,61,0.00,,,0.00,weatherlink.com 1.10,2013-11-08 11:14:00,
2013-11-08 04:29:00,35.2,23.0,29.86,West,263,0.0,2.0,61,0.00,,,0.00,weatherlink.com 1.10,2013-11-08 11:29:00,
2013-11-08 04:44:00,35.2,22.0,29.86,NW,325,4.0,4.0,60,0.00,,,0.00,weatherlink.com 1.10,2013-11-08 11:44:00,
2013-11-08 04:59:00,36.2,21.0,29.85,North,5,1.0,3.0,55,0.00,,,0.00,weatherlink.com 1.10,2013-11-08 11:59:00,
2013-11-08 05:14:00,37.4,22.0,29.84,West,275,0.0,4.0,53,0.00,,,0.00,weatherlink.com 1.10,2013-11-08 12:14:00,
2013-11-08 05:29:00,42.5,20.0,29.83,SSW,193,1.0,4.0,41,0.00,,,0.00,weatherlink.com 1.10,2013-11-08 12:29:00,
2013-11-08 05:44:00,43.5,19.0,29.83,SE,143,0.0,5.0,38,0.00,,,0.00,weatherlink.com 1.10,2013-11-08 12:44:00,
2013-11-08 05:59:00,44.9,19.0,29.82,South,186,1.0,4.0,35,0.00,,,0.00,weatherlink.com 1.10,2013-11-08 12:59:00,
2013-11-08 06:14:00,49.0,17.0,29.81,SSW,202,3.0,8.0,28,0.00,,,0.00,weatherlink.com 1.10,2013-11-08 13:14:00,
2013-11-08 06:29:00,50.3,16.0,29.81,SSW,198,4.0,6.0,25,0.00,,,0.00,weatherlink.com 1.10,2013-11-08 13:29:00,
2013-11-08 06:44:00,52.7,17.0,29.80,NW,313,2.0,9.0,24,0.00,,,0.00,weatherlink.com 1.10,2013-11-08 13:44:00,
2013-11-08 06:59:00,49.2,17.0,29.81,East,80,1.0,7.0,28,0.00,,,0.00,weatherlink.com 1.10,2013-11-08 13:59:00,
2013-11-08 07:15:00,47.8,17.0,29.80,NNE,30,5.0,10.0,29,0.00,,,0.00,weatherlink.com 1.10,2013-11-08 14:15:00,
2013-11-08 07:29:00,49.0,19.0,29.81,North,355,3.0,4.0,30,0.00,,,0.00,weatherlink.com 1.10,2013-11-08 14:29:00,
2013-11-08 07:45:00,50.1,19.0,29.82,NW,309,1.0,3.0,29,0.00,,,0.00,weatherlink.com 1.10,2013-11-08 14:45:00,
2013-11-08 08:00:00,50.0,18.0,29.81,NNW,343,2.0,4.0,28,0.00,,,0.00,weatherlink.com 1.10,2013-11-08 15:00:00,
2013-11-08 08:15:00,50.5,18.0,29.82,ENE,69,2.0,5.0,28,0.00,,,0.00,weatherlink.com 1.10,2013-11-08 15:15:00,
2013-11-08 08:30:00,52.7,18.0,29.83,NE,35,2.0,5.0,26,0.00,,,0.00,weatherlink.com 1.10,2013-11-08 15:30:00,
2013-11-08 08:45:00,56.2,18.0,29.83,ESE,111,1.0,5.0,22,0.00,,,0.00,weatherlink.com 1.10,2013-11-08 15:45:00,
2013-11-08 09:00:00,59.0,17.0,29.83,ENE,78,1.0,6.0,19,0.00,,,0.00,weatherlink.com 1.10,2013-11-08 16:00:00,
2013-11-08 09:15:00,61.6,15.0,29.82,NNE,28,4.0,7.0,16,0.00,,,0.00,weatherlink.com 1.10,2013-11-08 16:15:00,
2013-11-08 09:30:00,62.9,14.0,29.83,SE,137,6.0,8.0,15,0.00,,,0.00,weatherlink.com 1.10,2013-11-08 16:30:00,
2013-11-08 10:00:00,62.8,13.0,29.78,WNW,293,15.0,20.0,14,0.00,,,0.00,weatherlink.com 1.10,2013-11-08 17:00:00,
2013-11-08 10:15:00,63.3,13.0,29.79,NW,310,1.0,10.0,14,0.00,,,0.00,weatherlink.com 1.10,2013-11-08 17:15:00,
2013-11-08 10:30:00,63.2,15.0,29.79,West,262,0.0,3.0,15,0.00,,,0.00,weatherlink.com 1.10,2013-11-08 17:30:00,
2013-11-08 10:45:00,63.6,16.0,29.78,West,262,0.0,2.0,16,0.00,,,0.00,weatherlink.com 1.10,2013-11-08 17:45:00,
2013-11-08 11:00:00,64.2,15.0,29.78,West,265,1.0,2.0,15,0.00,,,0.00,weatherlink.com 1.10,2013-11-08 18:00:00,
2013-11-08 11:15:00,65.1,15.0,29.78,West,259,0.0,2.0,14,0.00,,,0.00,weatherlink.com 1.10,2013-11-08 18:15:00,
2013-11-08 11:30:00,65.3,16.0,29.78,SE,140,5.0,9.0,15,0.00,,,0.00,weatherlink.com 1.10,2013-11-08 18:30:00,
2013-11-08 11:45:00,65.2,18.0,29.77,SE,128,1.0,9.0,16,0.00,,,0.00,weatherlink.com 1.10,2013-11-08 18:45:00,
2013-11-08 12:00:00,65.3,15.0,29.77,East,84,0.0,7.0,14,0.00,,,0.00,weatherlink.com 1.10,2013-11-08 19:00:00,
2013-11-08 12:15:00,63.6,16.0,29.77,East,92,3.0,8.0,16,0.00,,,0.00,weatherlink.com 1.10,2013-11-08 19:15:00,
2013-11-08 12:30:00,63.4,16.0,29.76,ENE,74,5.0,8.0,16,0.00,,,0.00,weatherlink.com 1.10,2013-11-08 19:30:00,
2013-11-08 12:45:00,63.9,15.0,29.76,South,175,0.0,5.0,15,0.00,,,0.00,weatherlink.com 1.10,2013-11-08 19:45:00,
2013-11-08 13:00:00,64.1,17.0,29.76,East,92,8.0,9.0,16,0.00,,,0.00,weatherlink.com 1.10,2013-11-08 20:00:00,
2013-11-08 13:15:00,63.6,16.0,29.77,East,84,1.0,9.0,16,0.00,,,0.00,weatherlink.com 1.10,2013-11-08 20:15:00,
2013-11-08 13:30:00,63.7,16.0,29.77,NE,54,2.0,10.0,16,0.00,,,0.00,weatherlink.com 1.10,2013-11-08 20:30:00,
2013-11-08 13:45:00,64.1,15.0,29.77,ENE,60,0.0,3.0,15,0.00,,,0.00,weatherlink.com 1.10,2013-11-08 20:45:00,
2013-11-08 14:00:00,63.8,17.0,29.77,SE,130,0.0,6.0,16,0.00,,,0.00,weatherlink.com 1.10,2013-11-08 21:00:00,
2013-11-08 14:15:00,63.5,18.0,29.77,WNW,301,0.0,6.0,17,0.00,,,0.00,weatherlink.com 1.10,2013-11-08 21:15:00,
2013-11-08 14:30:00,63.8,17.0,29.77,SSW,205,0.0,2.0,16,0.00,,,0.00,weatherlink.com 1.10,2013-11-08 21:30:00,
2013-11-08 14:45:00,63.7,16.0,29.77,WNW,302,2.0,4.0,16,0.00,,,0.00,weatherlink.com 1.10,2013-11-08 21:45:00,
2013-11-08 15:00:00,64.1,18.0,29.77,WNW,302,0.0,2.0,17,0.00,,,0.00,weatherlink.com 1.10,2013-11-08 22:00:00,
2013-11-08 15:15:00,64.2,18.0,29.77,SE,141,0.0,5.0,17,0.00,,,0.00,weatherlink.com 1.10,2013-11-08 22:15:00,
2013-11-08 15:30:00,64.3,17.0,29.78,South,171,2.0,3.0,16,0.00,,,0.00,weatherlink.com 1.10,2013-11-08 22:30:00,
2013-11-08 15:45:00,64.2,18.0,29.78,SW,214,0.0,3.0,17,0.00,,,0.00,weatherlink.com 1.10,2013-11-08 22:45:00,
2013-11-08 16:00:00,63.0,19.0,29.77,SSE,160,0.0,5.0,18,0.00,,,0.00,weatherlink.com 1.10,2013-11-08 23:00:00,
2013-11-08 16:15:00,62.0,20.0,29.78,SE,141,0.0,3.0,20,0.00,,,0.00,weatherlink.com 1.10,2013-11-08 23:15:00,
2013-11-08 16:45:00,60.4,21.0,29.79,South,184,0.0,0.0,22,0.00,,,0.00,weatherlink.com 1.10,2013-11-08 23:45:00,
2013-11-08 17:00:00,58.2,20.0,29.80,South,184,0.0,1.0,23,0.00,,,0.00,weatherlink.com 1.10,2013-11-09 00:00:00,
2013-11-08 17:15:00,56.7,23.0,29.81,South,184,0.0,0.0,27,0.00,,,0.00,weatherlink.com 1.10,2013-11-09 00:15:00,
2013-11-08 17:30:00,53.9,23.0,29.82,South,184,0.0,1.0,30,0.00,,,0.00,weatherlink.com 1.10,2013-11-09 00:30:00,
2013-11-08 17:45:00,51.6,24.0,29.82,SW,225,0.0,2.0,34,0.00,,,0.00,weatherlink.com 1.10,2013-11-09 00:45:00,
2013-11-08 18:00:00,49.9,24.0,29.83,SW,225,0.0,1.0,36,0.00,,,0.00,weatherlink.com 1.10,2013-11-09 01:00:00,
2013-11-08 18:15:00,48.3,25.0,29.84,SW,225,0.0,1.0,40,0.00,,,0.00,weatherlink.com 1.10,2013-11-09 01:15:00,
2013-11-08 18:30:00,49.2,23.0,29.85,ESE,107,0.0,2.0,36,0.00,,,0.00,weatherlink.com 1.10,2013-11-09 01:30:00,
2013-11-08 18:45:00,47.6,24.0,29.85,ESE,107,0.0,2.0,40,0.00,,,0.00,weatherlink.com 1.10,2013-11-09 01:45:00,
2013-11-08 19:00:00,46.0,24.0,29.86,South,189,0.0,2.0,43,0.00,,,0.00,weatherlink.com 1.10,2013-11-09 02:00:00,
2013-11-08 19:15:00,45.2,24.0,29.86,South,189,0.0,1.0,43,0.00,,,0.00,weatherlink.com 1.10,2013-11-09 02:15:00,
2013-11-08 19:30:00,44.6,24.0,29.86,South,189,0.0,0.0,45,0.00,,,0.00,weatherlink.com 1.10,2013-11-09 02:30:00,
2013-11-08 19:45:00,44.0,25.0,29.87,SSW,198,0.0,1.0,47,0.00,,,0.00,weatherlink.com 1.10,2013-11-09 02:45:00,
2013-11-08 20:00:00,43.1,24.0,29.87,SSW,198,0.0,1.0,48,0.00,,,0.00,weatherlink.com 1.10,2013-11-09 03:00:00,
2013-11-08 20:15:00,42.6,24.0,29.87,SSW,198,0.0,0.0,49,0.00,,,0.00,weatherlink.com 1.10,2013-11-09 03:15:00,
2013-11-08 20:30:00,42.6,24.0,29.88,South,185,2.0,2.0,48,0.00,,,0.00,weatherlink.com 1.10,2013-11-09 03:30:00,
2013-11-08 20:45:00,43.2,23.0,29.89,East,86,0.0,3.0,45,0.00,,,0.00,weatherlink.com 1.10,2013-11-09 03:45:00,
2013-11-08 21:00:00,45.1,21.0,29.89,West,277,0.0,4.0,39,0.00,,,0.00,weatherlink.com 1.10,2013-11-09 04:00:00,
2013-11-08 21:15:00,45.1,23.0,29.91,East,86,0.0,2.0,42,0.00,,,0.00,weatherlink.com 1.10,2013-11-09 04:15:00,
2013-11-08 21:30:00,44.1,23.0,29.91,East,86,0.0,1.0,43,0.00,,,0.00,weatherlink.com 1.10,2013-11-09 04:30:00,
2013-11-08 21:45:00,42.7,23.0,29.92,East,86,0.0,1.0,46,0.00,,,0.00,weatherlink.com 1.10,2013-11-09 04:45:00,
2013-11-08 22:00:00,42.0,23.0,29.93,East,86,0.0,2.0,47,0.00,,,0.00,weatherlink.com 1.10,2013-11-09 05:00:00,
2013-11-08 22:15:00,41.2,23.0,29.93,East,86,0.0,1.0,49,0.00,,,0.00,weatherlink.com 1.10,2013-11-09 05:15:00,
2013-11-08 22:30:00,41.4,23.0,29.94,East,84,0.0,5.0,48,0.00,,,0.00,weatherlink.com 1.10,2013-11-09 05:30:00,
2013-11-08 22:45:00,41.9,23.0,29.95,East,84,0.0,2.0,47,0.00,,,0.00,weatherlink.com 1.10,2013-11-09 05:45:00,
2013-11-08 23:00:00,41.9,23.0,29.95,East,87,0.0,2.0,48,0.00,,,0.00,weatherlink.com 1.10,2013-11-09 06:00:00,
2013-11-08 23:15:00,41.1,23.0,29.95,East,87,0.0,2.0,49,0.00,,,0.00,weatherlink.com 1.10,2013-11-09 06:15:00,
2013-11-08 23:30:00,42.6,21.0,29.94,WNW,284,0.0,6.0,42,0.00,,,0.00,weatherlink.com 1.10,2013-11-09 06:30:00,
2013-11-08 23:45:00,44.7,20.0,29.95,WNW,283,2.0,3.0,37,0.00,,,0.00,weatherlink.com 1.10,2013-11-09 06:45:00,